sensor_id;sensor_type;location;lat;lon;timestamp;pressure;altitude;pressure_sealevel;temperature;humidity
80323;BME280;69636;52.372;13.610;2024-02-26T00:02:24;100209.13;;;0.64;100.00
80323;BME280;69636;52.372;13.610;2024-02-26T00:04:52;100198.88;;;0.48;100.00
80323;BME280;69636;52.372;13.610;2024-02-26T00:07:19;100198.22;;;0.32;100.00
80323;BME280;69636;52.372;13.610;2024-02-26T00:09:46;100203.72;;;0.27;100.00
80323;BME280;69636;52.372;13.610;2024-02-26T00:12:14;100196.88;;;0.39;100.00
80323;BME280;69636;52.372;13.610;2024-02-26T00:14:41;100193.44;;;0.39;100.00
80323;BME280;69636;52.372;13.610;2024-02-26T00:17:09;100188.94;;;0.53;100.00
80323;BME280;69636;52.372;13.610;2024-02-26T00:19:37;100196.06;;;0.51;100.00
80323;BME280;69636;52.372;13.610;2024-02-26T00:22:05;100188.31;;;0.37;100.00
80323;BME280;69636;52.372;13.610;2024-02-26T00:24:32;100178.25;;;0.31;100.00
80323;BME280;69636;52.372;13.610;2024-02-26T00:27:00;100174.50;;;0.35;100.00
80323;BME280;69636;52.372;13.610;2024-02-26T00:29:27;100166.16;;;0.30;100.00
80323;BME280;69636;52.372;13.610;2024-02-26T00:31:54;100176.81;;;0.52;100.00
80323;BME280;69636;52.372;13.610;2024-02-26T00:34:22;100170.03;;;0.37;100.00
80323;BME280;69636;52.372;13.610;2024-02-26T00:36:51;100177.03;;;0.24;100.00
80323;BME280;69636;52.372;13.610;2024-02-26T00:39:18;100171.41;;;0.43;100.00
80323;BME280;69636;52.372;13.610;2024-02-26T00:41:45;100166.06;;;0.44;100.00
80323;BME280;69636;52.372;13.610;2024-02-26T00:44:13;100168.47;;;0.22;100.00
80323;BME280;69636;52.372;13.610;2024-02-26T00:46:40;100167.78;;;0.06;100.00
80323;BME280;69636;52.372;13.610;2024-02-26T00:49:07;100158.63;;;0.13;100.00
80323;BME280;69636;52.372;13.610;2024-02-26T00:51:35;100150.97;;;-0.03;100.00
80323;BME280;69636;52.372;13.610;2024-02-26T00:54:04;100151.38;;;0.04;100.00
80323;BME280;69636;52.372;13.610;2024-02-26T00:56:31;100146.81;;;0.07;100.00
80323;BME280;69636;52.372;13.610;2024-02-26T00:58:59;100159.63;;;-0.03;100.00
80323;BME280;69636;52.372;13.610;2024-02-26T01:01:26;100161.50;;;-0.05;100.00
80323;BME280;69636;52.372;13.610;2024-02-26T01:03:53;100168.19;;;-0.01;100.00
80323;BME280;69636;52.372;13.610;2024-02-26T01:06:22;100154.94;;;0.03;100.00
80323;BME280;69636;52.372;13.610;2024-02-26T01:08:49;100165.22;;;0.31;100.00
80323;BME280;69636;52.372;13.610;2024-02-26T01:11:18;100160.09;;;0.29;100.00
80323;BME280;69636;52.372;13.610;2024-02-26T01:13:45;100157.69;;;0.14;100.00
80323;BME280;69636;52.372;13.610;2024-02-26T01:16:13;100159.16;;;0.18;100.00
80323;BME280;69636;52.372;13.610;2024-02-26T01:18:40;100156.28;;;-0.05;100.00
80323;BME280;69636;52.372;13.610;2024-02-26T01:21:08;100158.75;;;-0.16;100.00
80323;BME280;69636;52.372;13.610;2024-02-26T01:23:35;100158.50;;;-0.25;100.00
80323;BME280;69636;52.372;13.610;2024-02-26T01:26:03;100158.34;;;-0.10;100.00
80323;BME280;69636;52.372;13.610;2024-02-26T01:28:32;100152.31;;;-0.10;100.00
80323;BME280;69636;52.372;13.610;2024-02-26T01:30:59;100152.41;;;-0.12;100.00
80323;BME280;69636;52.372;13.610;2024-02-26T01:33:26;100150.00;;;-0.15;100.00
80323;BME280;69636;52.372;13.610;2024-02-26T01:35:54;100155.06;;;-0.26;100.00
80323;BME280;69636;52.372;13.610;2024-02-26T01:38:21;100153.50;;;-0.28;100.00
80323;BME280;69636;52.372;13.610;2024-02-26T01:40:48;100145.78;;;-0.30;100.00
80323;BME280;69636;52.372;13.610;2024-02-26T01:43:16;100151.75;;;-0.28;100.00
80323;BME280;69636;52.372;13.610;2024-02-26T01:45:44;100143.59;;;-0.23;100.00
80323;BME280;69636;52.372;13.610;2024-02-26T01:48:11;100146.09;;;0.18;100.00
80323;BME280;69636;52.372;13.610;2024-02-26T01:50:40;100151.91;;;0.09;100.00
80323;BME280;69636;52.372;13.610;2024-02-26T01:53:09;100146.53;;;-0.15;100.00
80323;BME280;69636;52.372;13.610;2024-02-26T01:55:37;100154.03;;;-0.23;100.00
80323;BME280;69636;52.372;13.610;2024-02-26T01:58:05;100153.00;;;-0.21;100.00
80323;BME280;69636;52.372;13.610;2024-02-26T02:00:32;100162.38;;;-0.31;100.00
80323;BME280;69636;52.372;13.610;2024-02-26T02:03:02;100152.56;;;-0.54;100.00
80323;BME280;69636;52.372;13.610;2024-02-26T02:05:30;100157.78;;;-0.54;100.00
80323;BME280;69636;52.372;13.610;2024-02-26T02:07:58;100164.63;;;-0.39;100.00
80323;BME280;69636;52.372;13.610;2024-02-26T02:10:26;100163.88;;;-0.41;100.00
80323;BME280;69636;52.372;13.610;2024-02-26T02:12:54;100167.97;;;-0.37;100.00
80323;BME280;69636;52.372;13.610;2024-02-26T02:15:21;100172.00;;;-0.19;100.00
80323;BME280;69636;52.372;13.610;2024-02-26T02:17:48;100175.22;;;-0.28;100.00
80323;BME280;69636;52.372;13.610;2024-02-26T02:20:18;100176.72;;;-0.38;100.00
80323;BME280;69636;52.372;13.610;2024-02-26T02:22:47;100173.00;;;-0.48;100.00
80323;BME280;69636;52.372;13.610;2024-02-26T02:25:14;100165.19;;;-0.48;100.00
80323;BME280;69636;52.372;13.610;2024-02-26T02:27:42;100162.50;;;-0.47;100.00
80323;BME280;69636;52.372;13.610;2024-02-26T02:30:10;100161.84;;;-0.50;100.00
80323;BME280;69636;52.372;13.610;2024-02-26T02:32:39;100166.66;;;-0.30;100.00
80323;BME280;69636;52.372;13.610;2024-02-26T02:35:07;100165.72;;;-0.29;100.00
80323;BME280;69636;52.372;13.610;2024-02-26T02:37:35;100161.81;;;-0.36;100.00
80323;BME280;69636;52.372;13.610;2024-02-26T02:40:04;100158.84;;;-0.44;100.00
80323;BME280;69636;52.372;13.610;2024-02-26T02:42:32;100158.31;;;-0.49;100.00
80323;BME280;69636;52.372;13.610;2024-02-26T02:44:59;100154.38;;;-0.42;100.00
80323;BME280;69636;52.372;13.610;2024-02-26T02:47:27;100153.91;;;-0.35;100.00
80323;BME280;69636;52.372;13.610;2024-02-26T02:49:54;100145.78;;;-0.30;100.00
80323;BME280;69636;52.372;13.610;2024-02-26T02:52:22;100143.56;;;-0.36;100.00
80323;BME280;69636;52.372;13.610;2024-02-26T02:54:49;100148.72;;;-0.49;100.00
80323;BME280;69636;52.372;13.610;2024-02-26T02:57:18;100155.31;;;-0.43;100.00
80323;BME280;69636;52.372;13.610;2024-02-26T02:59:46;100161.81;;;-0.36;100.00
80323;BME280;69636;52.372;13.610;2024-02-26T03:02:13;100164.31;;;-0.35;100.00
80323;BME280;69636;52.372;13.610;2024-02-26T03:04:41;100164.06;;;-0.44;100.00
80323;BME280;69636;52.372;13.610;2024-02-26T03:07:08;100163.75;;;-0.52;100.00
80323;BME280;69636;52.372;13.610;2024-02-26T03:09:35;100163.38;;;-0.60;100.00
80323;BME280;69636;52.372;13.610;2024-02-26T03:12:03;100168.03;;;-0.65;100.00
80323;BME280;69636;52.372;13.610;2024-02-26T03:14:32;100157.44;;;-0.62;100.00
80323;BME280;69636;52.372;13.610;2024-02-26T03:16:59;100153.53;;;-0.70;100.00
80323;BME280;69636;52.372;13.610;2024-02-26T03:19:27;100156.97;;;-0.69;100.00
80323;BME280;69636;52.372;13.610;2024-02-26T03:21:54;100154.47;;;-0.71;100.00
80323;BME280;69636;52.372;13.610;2024-02-26T03:24:21;100154.25;;;-0.53;100.00
80323;BME280;69636;52.372;13.610;2024-02-26T03:26:49;100157.13;;;-0.58;100.00
80323;BME280;69636;52.372;13.610;2024-02-26T03:29:16;100160.16;;;-0.37;100.00
80323;BME280;69636;52.372;13.610;2024-02-26T03:31:45;100155.59;;;-0.21;100.00
80323;BME280;69636;52.372;13.610;2024-02-26T03:34:13;100147.00;;;-0.36;100.00
80323;BME280;69636;52.372;13.610;2024-02-26T03:36:40;100152.72;;;-0.43;100.00
80323;BME280;69636;52.372;13.610;2024-02-26T03:39:08;100152.06;;;-0.47;100.00
80323;BME280;69636;52.372;13.610;2024-02-26T03:41:35;100150.56;;;-0.37;100.00
80323;BME280;69636;52.372;13.610;2024-02-26T03:44:03;100157.09;;;-0.44;100.00
80323;BME280;69636;52.372;13.610;2024-02-26T03:46:30;100152.97;;;-0.60;100.00
80323;BME280;69636;52.372;13.610;2024-02-26T03:48:59;100150.09;;;-0.70;100.00
80323;BME280;69636;52.372;13.610;2024-02-26T03:51:27;100157.91;;;-0.70;100.00
80323;BME280;69636;52.372;13.610;2024-02-26T03:53:54;100160.25;;;-0.80;100.00
80323;BME280;69636;52.372;13.610;2024-02-26T03:56:21;100163.94;;;-0.70;100.00
80323;BME280;69636;52.372;13.610;2024-02-26T03:58:49;100163.81;;;-0.81;100.00
80323;BME280;69636;52.372;13.610;2024-02-26T04:01:16;100166.88;;;-0.88;100.00
80323;BME280;69636;52.372;13.610;2024-02-26T04:03:43;100166.41;;;-0.81;100.00
80323;BME280;69636;52.372;13.610;2024-02-26T04:06:12;100164.59;;;-0.66;100.00
80323;BME280;69636;52.372;13.610;2024-02-26T04:08:41;100152.97;;;-0.60;100.00
80323;BME280;69636;52.372;13.610;2024-02-26T04:11:08;100163.13;;;-0.70;100.00
80323;BME280;69636;52.372;13.610;2024-02-26T04:13:36;100167.50;;;-0.71;100.00
80323;BME280;69636;52.372;13.610;2024-02-26T04:16:04;100161.44;;;-0.71;100.00
80323;BME280;69636;52.372;13.610;2024-02-26T04:18:31;100174.38;;;-0.70;100.00
80323;BME280;69636;52.372;13.610;2024-02-26T04:20:59;100175.38;;;-0.58;100.00
80323;BME280;69636;52.372;13.610;2024-02-26T04:23:27;100188.69;;;-0.62;100.00
80323;BME280;69636;52.372;13.610;2024-02-26T04:25:54;100185.34;;;-0.64;100.00
80323;BME280;69636;52.372;13.610;2024-02-26T04:28:22;100189.56;;;-0.76;100.00
80323;BME280;69636;52.372;13.610;2024-02-26T04:30:49;100198.13;;;-0.88;100.00
80323;BME280;69636;52.372;13.610;2024-02-26T04:33:16;100203.25;;;-0.87;100.00
80323;BME280;69636;52.372;13.610;2024-02-26T04:35:44;100201.03;;;-0.93;100.00
80323;BME280;69636;52.372;13.610;2024-02-26T04:38:11;100196.38;;;-0.88;100.00
80323;BME280;69636;52.372;13.610;2024-02-26T04:40:40;100195.72;;;-0.91;100.00
80323;BME280;69636;52.372;13.610;2024-02-26T04:43:08;100195.91;;;-0.94;100.00
80323;BME280;69636;52.372;13.610;2024-02-26T04:45:35;100200.81;;;-0.61;100.00
80323;BME280;69636;52.372;13.610;2024-02-26T04:48:03;100212.91;;;-0.75;100.00
80323;BME280;69636;52.372;13.610;2024-02-26T04:50:30;100210.50;;;-0.78;100.00
80323;BME280;69636;52.372;13.610;2024-02-26T04:52:58;100214.59;;;-0.74;100.00
80323;BME280;69636;52.372;13.610;2024-02-26T04:55:25;100220.13;;;-0.51;100.00
80323;BME280;69636;52.372;13.610;2024-02-26T04:57:54;100219.47;;;-0.41;100.00
80323;BME280;69636;52.372;13.610;2024-02-26T05:00:21;100218.88;;;-0.58;100.00
80323;BME280;69636;52.372;13.610;2024-02-26T05:02:48;100214.97;;;-0.65;100.00
80323;BME280;69636;52.372;13.610;2024-02-26T05:05:16;100211.25;;;-0.76;100.00
80323;BME280;69636;52.372;13.610;2024-02-26T05:07:43;100211.63;;;-0.82;100.00
80323;BME280;69636;52.372;13.610;2024-02-26T05:10:11;100213.09;;;-0.78;100.00
80323;BME280;69636;52.372;13.610;2024-02-26T05:12:38;100207.88;;;-0.78;100.00
80323;BME280;69636;52.372;13.610;2024-02-26T05:15:08;100210.50;;;-0.78;100.00
80323;BME280;69636;52.372;13.610;2024-02-26T05:17:35;100211.78;;;-0.71;100.00
80323;BME280;69636;52.372;13.610;2024-02-26T05:20:03;100208.81;;;-0.64;100.00
80323;BME280;69636;52.372;13.610;2024-02-26T05:22:31;100218.28;;;-0.49;100.00
80323;BME280;69636;52.372;13.610;2024-02-26T05:24:58;100216.59;;;-0.50;100.00
80323;BME280;69636;52.372;13.610;2024-02-26T05:27:25;100218.03;;;-0.59;100.00
80323;BME280;69636;52.372;13.610;2024-02-26T05:29:53;100224.91;;;-0.58;100.00
80323;BME280;69636;52.372;13.610;2024-02-26T05:32:21;100230.88;;;-0.56;100.00
80323;BME280;69636;52.372;13.610;2024-02-26T05:34:49;100231.16;;;-0.60;100.00
80323;BME280;69636;52.372;13.610;2024-02-26T05:37:16;100231.66;;;-0.41;100.00
80323;BME280;69636;52.372;13.610;2024-02-26T05:39:44;100238.94;;;-0.46;100.00
80323;BME280;69636;52.372;13.610;2024-02-26T05:42:11;100238.94;;;-0.46;100.00
80323;BME280;69636;52.372;13.610;2024-02-26T05:44:38;100240.25;;;-0.39;100.00
80323;BME280;69636;52.372;13.610;2024-02-26T05:47:06;100249.09;;;-0.42;100.00
80323;BME280;69636;52.372;13.610;2024-02-26T05:49:35;100246.13;;;-0.50;100.00
80323;BME280;69636;52.372;13.610;2024-02-26T05:52:02;100256.19;;;-0.58;100.00
80323;BME280;69636;52.372;13.610;2024-02-26T05:54:30;100258.91;;;-0.59;100.00
80323;BME280;69636;52.372;13.610;2024-02-26T05:56:58;100264.19;;;-0.47;100.00
80323;BME280;69636;52.372;13.610;2024-02-26T05:59:25;100255.69;;;-0.36;100.00
80323;BME280;69636;52.372;13.610;2024-02-26T06:01:52;100253.84;;;-0.34;100.00
80323;BME280;69636;52.372;13.610;2024-02-26T06:04:20;100269.47;;;-0.34;100.00
80323;BME280;69636;52.372;13.610;2024-02-26T06:06:49;100271.72;;;-0.28;100.00
80323;BME280;69636;52.372;13.610;2024-02-26T06:09:16;100274.69;;;-0.34;100.00
80323;BME280;69636;52.372;13.610;2024-02-26T06:11:44;100267.44;;;-0.29;100.00
80323;BME280;69636;52.372;13.610;2024-02-26T06:14:11;100275.22;;;-0.15;100.00
80323;BME280;69636;52.372;13.610;2024-02-26T06:16:38;100275.66;;;-0.08;100.00
80323;BME280;69636;52.372;13.610;2024-02-26T06:19:06;100286.19;;;-0.10;100.00
80323;BME280;69636;52.372;13.610;2024-02-26T06:21:36;100282.59;;;0.06;100.00
80323;BME280;69636;52.372;13.610;2024-02-26T06:24:05;100282.38;;;0.23;100.00
80323;BME280;69636;52.372;13.610;2024-02-26T06:26:32;100285.81;;;-0.04;100.00
80323;BME280;69636;52.372;13.610;2024-02-26T06:29:00;100282.94;;;-0.13;100.00
80323;BME280;69636;52.372;13.610;2024-02-26T06:31:27;100285.94;;;0.08;100.00
80323;BME280;69636;52.372;13.610;2024-02-26T06:33:55;100280.81;;;0.33;100.00
80323;BME280;69636;52.372;13.610;2024-02-26T06:36:22;100276.72;;;0.68;100.00
80323;BME280;69636;52.372;13.610;2024-02-26T06:38:51;100285.31;;;0.71;100.00
80323;BME280;69636;52.372;13.610;2024-02-26T06:41:20;100278.63;;;1.17;100.00
80323;BME280;69636;52.372;13.610;2024-02-26T06:43:47;100285.34;;;0.96;100.00
80323;BME280;69636;52.372;13.610;2024-02-26T06:46:15;100281.34;;;0.78;100.00
80323;BME280;69636;52.372;13.610;2024-02-26T06:48:42;100287.38;;;0.78;100.00
80323;BME280;69636;52.372;13.610;2024-02-26T06:51:10;100294.94;;;1.08;100.00
80323;BME280;69636;52.372;13.610;2024-02-26T06:53:37;100292.84;;;1.51;100.00
80323;BME280;69636;52.372;13.610;2024-02-26T06:56:05;100295.53;;;1.62;100.00
80323;BME280;69636;52.372;13.610;2024-02-26T06:58:34;100297.63;;;1.70;100.00
80323;BME280;69636;52.372;13.610;2024-02-26T07:01:01;100298.88;;;1.77;100.00
80323;BME280;69636;52.372;13.610;2024-02-26T07:03:28;100299.81;;;1.76;100.00
80323;BME280;69636;52.372;13.610;2024-02-26T07:05:56;100308.47;;;2.13;100.00
80323;BME280;69636;52.372;13.610;2024-02-26T07:08:23;100305.69;;;2.51;100.00
80323;BME280;69636;52.372;13.610;2024-02-26T07:10:51;100304.19;;;2.60;100.00
80323;BME280;69636;52.372;13.610;2024-02-26T07:13:18;100313.13;;;2.68;100.00
80323;BME280;69636;52.372;13.610;2024-02-26T07:15:47;100306.78;;;2.84;100.00
80323;BME280;69636;52.372;13.610;2024-02-26T07:18:14;100317.31;;;2.71;100.00
80323;BME280;69636;52.372;13.610;2024-02-26T07:20:42;100313.91;;;2.82;100.00
80323;BME280;69636;52.372;13.610;2024-02-26T07:23:09;100315.81;;;2.80;100.00
80323;BME280;69636;52.372;13.610;2024-02-26T07:25:37;100310.50;;;3.03;100.00
80323;BME280;69636;52.372;13.610;2024-02-26T07:28:04;100308.22;;;2.99;100.00
80323;BME280;69636;52.372;13.610;2024-02-26T07:30:31;100309.84;;;2.89;100.00
80323;BME280;69636;52.372;13.610;2024-02-26T07:33:00;100311.47;;;3.02;100.00
80323;BME280;69636;52.372;13.610;2024-02-26T07:35:28;100309.91;;;3.00;100.00
80323;BME280;69636;52.372;13.610;2024-02-26T07:37:55;100306.44;;;2.99;100.00
80323;BME280;69636;52.372;13.610;2024-02-26T07:40:22;100304.09;;;3.41;100.00
80323;BME280;69636;52.372;13.610;2024-02-26T07:42:50;100306.16;;;3.60;100.00
80323;BME280;69636;52.372;13.610;2024-02-26T07:45:17;100314.47;;;3.65;100.00
80323;BME280;69636;52.372;13.610;2024-02-26T07:47:44;100310.44;;;3.72;100.00
80323;BME280;69636;52.372;13.610;2024-02-26T07:50:13;100308.63;;;3.72;100.00
80323;BME280;69636;52.372;13.610;2024-02-26T07:52:41;100306.84;;;3.73;100.00
80323;BME280;69636;52.372;13.610;2024-02-26T07:55:08;100310.41;;;3.94;100.00
80323;BME280;69636;52.372;13.610;2024-02-26T07:57:36;100305.97;;;4.06;100.00
80323;BME280;69636;52.372;13.610;2024-02-26T08:00:04;100304.19;;;3.95;100.00
80323;BME280;69636;52.372;13.610;2024-02-26T08:02:32;100309.44;;;4.06;100.00
80323;BME280;69636;52.372;13.610;2024-02-26T08:04:59;100308.97;;;4.01;100.00
80323;BME280;69636;52.372;13.610;2024-02-26T08:07:28;100315.34;;;4.20;100.00
80323;BME280;69636;52.372;13.610;2024-02-26T08:09:55;100306.63;;;4.30;100.00
80323;BME280;69636;52.372;13.610;2024-02-26T08:12:22;100315.22;;;4.32;100.00
80323;BME280;69636;52.372;13.610;2024-02-26T08:14:50;100315.22;;;4.32;100.00
80323;BME280;69636;52.372;13.610;2024-02-26T08:17:17;100317.22;;;4.40;100.00
80323;BME280;69636;52.372;13.610;2024-02-26T08:19:45;100321.72;;;4.81;100.00
80323;BME280;69636;52.372;13.610;2024-02-26T08:22:12;100314.16;;;5.08;100.00
80323;BME280;69636;52.372;13.610;2024-02-26T08:24:41;100318.09;;;5.24;100.00
80323;BME280;69636;52.372;13.610;2024-02-26T08:27:08;100317.09;;;5.36;100.00
80323;BME280;69636;52.372;13.610;2024-02-26T08:29:36;100315.19;;;5.47;100.00
80323;BME280;69636;52.372;13.610;2024-02-26T08:32:04;100321.78;;;5.63;100.00
80323;BME280;69636;52.372;13.610;2024-02-26T08:34:31;100323.44;;;5.64;100.00
80323;BME280;69636;52.372;13.610;2024-02-26T08:36:59;100314.47;;;5.76;100.00
80323;BME280;69636;52.372;13.610;2024-02-26T08:39:26;100320.72;;;5.75;100.00
80323;BME280;69636;52.372;13.610;2024-02-26T08:41:55;100312.66;;;6.07;100.00
80323;BME280;69636;52.372;13.610;2024-02-26T08:44:22;100310.34;;;6.23;100.00
80323;BME280;69636;52.372;13.610;2024-02-26T08:46:50;100316.34;;;6.83;100.00
80323;BME280;69636;52.372;13.610;2024-02-26T08:49:18;100310.09;;;6.94;100.00
80323;BME280;69636;52.372;13.610;2024-02-26T08:51:45;100310.59;;;7.26;100.00
80323;BME280;69636;52.372;13.610;2024-02-26T08:54:12;100307.75;;;7.37;99.35
80323;BME280;69636;52.372;13.610;2024-02-26T08:56:40;100310.75;;;7.15;99.73
80323;BME280;69636;52.372;13.610;2024-02-26T08:59:09;100306.97;;;7.27;99.48
80323;BME280;69636;52.372;13.610;2024-02-26T09:01:36;100302.25;;;7.58;97.71
80323;BME280;69636;52.372;13.610;2024-02-26T09:04:03;100299.88;;;7.65;97.98
80323;BME280;69636;52.372;13.610;2024-02-26T09:06:31;100306.78;;;7.38;98.62
80323;BME280;69636;52.372;13.610;2024-02-26T09:08:58;100304.44;;;7.35;97.95
80323;BME280;69636;52.372;13.610;2024-02-26T09:11:28;100297.59;;;7.42;98.79
80323;BME280;69636;52.372;13.610;2024-02-26T09:13:56;100300.88;;;7.64;98.51
80323;BME280;69636;52.372;13.610;2024-02-26T09:16:24;100301.00;;;7.90;96.23
80323;BME280;69636;52.372;13.610;2024-02-26T09:18:51;100295.22;;;8.31;96.07
80323;BME280;69636;52.372;13.610;2024-02-26T09:21:19;100296.94;;;8.94;92.44
80323;BME280;69636;52.372;13.610;2024-02-26T09:23:46;100292.63;;;9.44;89.46
80323;BME280;69636;52.372;13.610;2024-02-26T09:26:14;100296.34;;;9.51;88.58
80323;BME280;69636;52.372;13.610;2024-02-26T09:28:42;100296.59;;;9.74;89.43
80323;BME280;69636;52.372;13.610;2024-02-26T09:31:09;100294.25;;;10.13;88.24
80323;BME280;69636;52.372;13.610;2024-02-26T09:33:38;100301.81;;;10.42;85.85
80323;BME280;69636;52.372;13.610;2024-02-26T09:36:06;100303.34;;;10.61;84.87
80323;BME280;69636;52.372;13.610;2024-02-26T09:38:33;100306.28;;;10.42;86.92
80323;BME280;69636;52.372;13.610;2024-02-26T09:41:15;100299.53;;;10.64;86.85
80323;BME280;69636;52.372;13.610;2024-02-26T09:43:44;100300.03;;;11.16;84.30
80323;BME280;69636;52.372;13.610;2024-02-26T09:46:12;100303.56;;;11.64;80.84
80323;BME280;69636;52.372;13.610;2024-02-26T09:48:42;100305.50;;;11.70;78.58
80323;BME280;69636;52.372;13.610;2024-02-26T09:51:10;100304.88;;;12.46;73.50
80323;BME280;69636;52.372;13.610;2024-02-26T09:53:39;100309.22;;;12.84;70.95
80323;BME280;69636;52.372;13.610;2024-02-26T09:56:11;100296.31;;;12.96;69.02
80323;BME280;69636;52.372;13.610;2024-02-26T09:58:39;100296.69;;;13.08;67.53
80323;BME280;69636;52.372;13.610;2024-02-26T10:01:11;100305.22;;;12.66;69.33
80323;BME280;69636;52.372;13.610;2024-02-26T10:03:41;100308.41;;;12.84;69.20
80323;BME280;69636;52.372;13.610;2024-02-26T10:06:09;100304.84;;;12.91;66.96
80323;BME280;69636;52.372;13.610;2024-02-26T10:08:37;100308.81;;;13.18;65.16
80323;BME280;69636;52.372;13.610;2024-02-26T10:11:05;100305.16;;;13.34;67.12
80323;BME280;69636;52.372;13.610;2024-02-26T10:13:34;100307.91;;;12.35;69.17
80323;BME280;69636;52.372;13.610;2024-02-26T10:16:02;100307.13;;;11.95;72.13
80323;BME280;69636;52.372;13.610;2024-02-26T10:18:48;100308.59;;;12.29;73.26
80323;BME280;69636;52.372;13.610;2024-02-26T10:21:20;100311.84;;;12.70;68.90
80323;BME280;69636;52.372;13.610;2024-02-26T10:23:48;100312.06;;;12.83;66.79
80323;BME280;69636;52.372;13.610;2024-02-26T10:26:16;100306.69;;;12.91;66.27
80323;BME280;69636;52.372;13.610;2024-02-26T10:28:44;100304.69;;;13.89;61.55
80323;BME280;69636;52.372;13.610;2024-02-26T10:31:14;100300.75;;;13.41;61.88
80323;BME280;69636;52.372;13.610;2024-02-26T10:33:42;100305.25;;;13.41;62.27
80323;BME280;69636;52.372;13.610;2024-02-26T10:36:12;100308.09;;;13.39;62.89
80323;BME280;69636;52.372;13.610;2024-02-26T10:38:39;100309.00;;;13.17;62.79
80323;BME280;69636;52.372;13.610;2024-02-26T10:41:07;100303.03;;;13.30;64.02
80323;BME280;69636;52.372;13.610;2024-02-26T10:43:34;100309.56;;;13.04;63.06
80323;BME280;69636;52.372;13.610;2024-02-26T10:46:02;100306.38;;;13.76;60.77
80323;BME280;69636;52.372;13.610;2024-02-26T10:48:29;100310.75;;;13.98;59.66
80323;BME280;69636;52.372;13.610;2024-02-26T10:50:57;100303.25;;;14.23;57.23
80323;BME280;69636;52.372;13.610;2024-02-26T10:53:29;100304.03;;;14.74;57.54
80323;BME280;69636;52.372;13.610;2024-02-26T10:56:01;100300.78;;;14.79;56.85
80323;BME280;69636;52.372;13.610;2024-02-26T10:58:28;100298.75;;;15.99;54.20
80323;BME280;69636;52.372;13.610;2024-02-26T11:00:56;100306.63;;;16.07;51.85
80323;BME280;69636;52.372;13.610;2024-02-26T11:03:25;100310.59;;;15.21;53.91
80323;BME280;69636;52.372;13.610;2024-02-26T11:05:53;100312.78;;;15.39;52.65
80323;BME280;69636;52.372;13.610;2024-02-26T11:08:21;100315.09;;;15.76;52.78
80323;BME280;69636;52.372;13.610;2024-02-26T11:10:53;100318.75;;;16.03;51.27
80323;BME280;69636;52.372;13.610;2024-02-26T11:13:21;100304.78;;;16.21;51.08
80323;BME280;69636;52.372;13.610;2024-02-26T11:15:50;100307.63;;;15.65;52.00
80323;BME280;69636;52.372;13.610;2024-02-26T11:18:19;100301.34;;;15.51;52.50
80323;BME280;69636;52.372;13.610;2024-02-26T11:20:48;100301.63;;;15.63;52.66
80323;BME280;69636;52.372;13.610;2024-02-26T11:23:16;100310.31;;;16.13;51.02
80323;BME280;69636;52.372;13.610;2024-02-26T11:25:43;100307.56;;;16.47;49.77
80323;BME280;69636;52.372;13.610;2024-02-26T11:28:14;100306.81;;;16.73;48.71
80323;BME280;69636;52.372;13.610;2024-02-26T11:30:45;100310.13;;;17.28;48.82
80323;BME280;69636;52.372;13.610;2024-02-26T11:33:14;100303.47;;;16.58;49.67
80323;BME280;69636;52.372;13.610;2024-02-26T11:35:42;100303.91;;;16.61;49.51
80323;BME280;69636;52.372;13.610;2024-02-26T11:38:17;100303.00;;;16.35;49.41
80323;BME280;69636;52.372;13.610;2024-02-26T11:40:45;100305.59;;;14.33;55.32
80323;BME280;69636;52.372;13.610;2024-02-26T11:43:14;100299.53;;;14.53;54.65
80323;BME280;69636;52.372;13.610;2024-02-26T11:45:50;100299.31;;;14.19;56.76
80323;BME280;69636;52.372;13.610;2024-02-26T11:48:22;100300.09;;;14.49;55.29
80323;BME280;69636;52.372;13.610;2024-02-26T11:50:51;100300.59;;;14.59;55.19
80323;BME280;69636;52.372;13.610;2024-02-26T11:53:26;100293.97;;;14.98;54.18
80323;BME280;69636;52.372;13.610;2024-02-26T11:56:12;100297.13;;;14.86;55.69
80323;BME280;69636;52.372;13.610;2024-02-26T11:58:41;100296.72;;;15.11;53.66
80323;BME280;69636;52.372;13.610;2024-02-26T12:01:37;100298.00;;;15.15;53.73
80323;BME280;69636;52.372;13.610;2024-02-26T12:04:05;100297.09;;;15.29;53.74
80323;BME280;69636;52.372;13.610;2024-02-26T12:06:41;100294.91;;;15.74;52.25
80323;BME280;69636;52.372;13.610;2024-02-26T12:09:09;100288.38;;;15.20;54.08
80323;BME280;69636;52.372;13.610;2024-02-26T12:11:40;100291.81;;;14.65;54.20
80323;BME280;69636;52.372;13.610;2024-02-26T12:14:10;100293.16;;;14.54;55.95
80323;BME280;69636;52.372;13.610;2024-02-26T12:16:38;100293.13;;;14.18;56.93
80323;BME280;69636;52.372;13.610;2024-02-26T12:19:06;100287.91;;;14.10;57.23
80323;BME280;69636;52.372;13.610;2024-02-26T12:21:35;100286.72;;;14.49;55.67
80323;BME280;69636;52.372;13.610;2024-02-26T12:24:13;100294.44;;;15.08;54.56
80323;BME280;69636;52.372;13.610;2024-02-26T12:26:40;100295.94;;;14.46;56.11
80323;BME280;69636;52.372;13.610;2024-02-26T12:29:09;100301.28;;;14.32;55.56
80323;BME280;69636;52.372;13.610;2024-02-26T12:31:37;100299.34;;;13.89;58.56
80323;BME280;69636;52.372;13.610;2024-02-26T12:34:05;100302.56;;;14.00;57.45
80323;BME280;69636;52.372;13.610;2024-02-26T12:36:33;100304.53;;;13.76;59.06
80323;BME280;69636;52.372;13.610;2024-02-26T12:39:01;100309.50;;;13.50;60.74
80323;BME280;69636;52.372;13.610;2024-02-26T12:41:28;100308.81;;;13.33;60.45